Terminal Aerodrome Forecast
Issued by NWS

Home | Current Version | Previous Version | Text Only | Print | Product List | Glossary On
Versions: 1 2 3 4 5 6 7 8 9 10 11 12 13 14 15
107
FTUS45 KPSR 221606 AAA
TAFBLH
TAF AMD
KBLH 221606Z 2216/2312 23014KT P6SM FEW060 SCT200
     FM222000 22016G22KT P6SM SCT070 SCT200
     FM230300 22008KT P6SM FEW070=

USA.gov is the U.S. government's official web portal to all federal, state and local government web resources and services.